Terminal Aerodrome Forecast
Issued by NWS Paducah, KY

Home | Current Version | Previous Version | Text Only | Print | Product List | Glossary On
Versions: 1 2 3 4 5 6 7 8 9 10 11 12 13 14 15 16 17 18 19 20 21 22
621
FTUS43 KPAH 092223 AAA
TAFEVV
TAF AMD
KEVV 092223Z 0922/1018 31010KT 5SM -SHSN SCT025 OVC035
      TEMPO 0922/1001 29013KT 2SM -SHSN BKN025
     FM100900 30010KT P6SM OVC030
     FM101500 30010KT P6SM SCT030=

USA.gov is the U.S. government's official web portal to all federal, state and local government web resources and services.